Terminal Aerodrome Forecast
Issued by NWS

Current Version | Previous Version | Graphics & Text | Print | Product List | Glossary On
Versions: 1 2 3 4 5 6 7 8 9 10 11 12 13 14 15 16
000
FTUS41 KPBZ 230500
TAFHLG
TAF
KHLG 230528Z 2306/2406 32010G16KT P6SM OVC025
     FM231500 32014G22KT P6SM BKN040
     FM232000 31014G22KT P6SM SCT040
     FM240000 32008KT P6SM SKC=

USA.gov is the U.S. government's official web portal to all federal, state and local government web resources and services.